sensor_id;sensor_type;location;lat;lon;timestamp;P1;durP1;ratioP1;P2;durP2;ratioP2
40537;SDS011;27925;41.874;12.526;2024-02-23T00:01:16;9.30;;;4.13;;
40537;SDS011;27925;41.874;12.526;2024-02-23T00:03:42;9.65;;;3.97;;
40537;SDS011;27925;41.874;12.526;2024-02-23T00:06:08;8.10;;;3.80;;
40537;SDS011;27925;41.874;12.526;2024-02-23T00:08:34;11.02;;;3.70;;
40537;SDS011;27925;41.874;12.526;2024-02-23T00:10:59;8.15;;;3.92;;
40537;SDS011;27925;41.874;12.526;2024-02-23T00:13:25;10.00;;;3.95;;
40537;SDS011;27925;41.874;12.526;2024-02-23T00:15:51;9.20;;;4.10;;
40537;SDS011;27925;41.874;12.526;2024-02-23T00:18:16;10.05;;;4.60;;
40537;SDS011;27925;41.874;12.526;2024-02-23T00:20:42;8.13;;;3.58;;
40537;SDS011;27925;41.874;12.526;2024-02-23T00:23:08;7.68;;;3.90;;
40537;SDS011;27925;41.874;12.526;2024-02-23T00:25:34;11.18;;;4.00;;
40537;SDS011;27925;41.874;12.526;2024-02-23T00:28:00;9.80;;;3.63;;
40537;SDS011;27925;41.874;12.526;2024-02-23T00:30:25;9.30;;;4.38;;
40537;SDS011;27925;41.874;12.526;2024-02-23T00:32:52;14.85;;;4.30;;
40537;SDS011;27925;41.874;12.526;2024-02-23T00:35:18;11.75;;;4.70;;
40537;SDS011;27925;41.874;12.526;2024-02-23T00:37:44;9.43;;;4.38;;
40537;SDS011;27925;41.874;12.526;2024-02-23T00:40:09;9.68;;;4.03;;
40537;SDS011;27925;41.874;12.526;2024-02-23T00:42:36;12.00;;;3.95;;
40537;SDS011;27925;41.874;12.526;2024-02-23T00:45:02;7.75;;;4.03;;
40537;SDS011;27925;41.874;12.526;2024-02-23T00:47:28;10.88;;;3.88;;
40537;SDS011;27925;41.874;12.526;2024-02-23T00:49:54;10.60;;;4.00;;
40537;SDS011;27925;41.874;12.526;2024-02-23T00:52:19;10.60;;;4.07;;
40537;SDS011;27925;41.874;12.526;2024-02-23T00:54:45;9.13;;;3.85;;
40537;SDS011;27925;41.874;12.526;2024-02-23T00:57:11;8.25;;;4.20;;
40537;SDS011;27925;41.874;12.526;2024-02-23T00:59:36;11.35;;;4.38;;
40537;SDS011;27925;41.874;12.526;2024-02-23T01:02:02;9.45;;;4.70;;
40537;SDS011;27925;41.874;12.526;2024-02-23T01:04:28;11.05;;;4.80;;
40537;SDS011;27925;41.874;12.526;2024-02-23T01:06:53;9.60;;;4.05;;
40537;SDS011;27925;41.874;12.526;2024-02-23T01:09:19;9.23;;;3.90;;
40537;SDS011;27925;41.874;12.526;2024-02-23T01:11:48;10.98;;;4.35;;
40537;SDS011;27925;41.874;12.526;2024-02-23T01:14:14;9.85;;;3.95;;
40537;SDS011;27925;41.874;12.526;2024-02-23T01:16:40;9.65;;;4.43;;
40537;SDS011;27925;41.874;12.526;2024-02-23T01:19:06;9.73;;;4.28;;
40537;SDS011;27925;41.874;12.526;2024-02-23T01:21:32;12.18;;;4.68;;
40537;SDS011;27925;41.874;12.526;2024-02-23T01:23:58;8.52;;;4.07;;
40537;SDS011;27925;41.874;12.526;2024-02-23T01:26:25;13.15;;;4.47;;
40537;SDS011;27925;41.874;12.526;2024-02-23T01:28:52;11.57;;;4.82;;
40537;SDS011;27925;41.874;12.526;2024-02-23T01:31:18;8.65;;;4.28;;
40537;SDS011;27925;41.874;12.526;2024-02-23T01:33:44;11.82;;;4.25;;
40537;SDS011;27925;41.874;12.526;2024-02-23T01:36:10;7.90;;;4.10;;
40537;SDS011;27925;41.874;12.526;2024-02-23T01:38:35;8.93;;;4.10;;
40537;SDS011;27925;41.874;12.526;2024-02-23T01:41:01;11.60;;;4.78;;
40537;SDS011;27925;41.874;12.526;2024-02-23T01:43:27;11.23;;;4.93;;
40537;SDS011;27925;41.874;12.526;2024-02-23T01:45:53;9.13;;;4.47;;
40537;SDS011;27925;41.874;12.526;2024-02-23T01:48:19;10.60;;;5.10;;
40537;SDS011;27925;41.874;12.526;2024-02-23T01:50:46;8.35;;;4.20;;
40537;SDS011;27925;41.874;12.526;2024-02-23T01:53:12;10.15;;;4.57;;
40537;SDS011;27925;41.874;12.526;2024-02-23T01:55:41;14.05;;;5.30;;
40537;SDS011;27925;41.874;12.526;2024-02-23T01:58:08;11.18;;;4.93;;
40537;SDS011;27925;41.874;12.526;2024-02-23T02:00:34;12.90;;;4.97;;
40537;SDS011;27925;41.874;12.526;2024-02-23T02:03:00;12.43;;;4.53;;
40537;SDS011;27925;41.874;12.526;2024-02-23T02:05:26;9.13;;;4.35;;
40537;SDS011;27925;41.874;12.526;2024-02-23T02:07:53;8.60;;;4.60;;
40537;SDS011;27925;41.874;12.526;2024-02-23T02:10:24;10.50;;;4.60;;
40537;SDS011;27925;41.874;12.526;2024-02-23T02:12:51;8.27;;;4.72;;
40537;SDS011;27925;41.874;12.526;2024-02-23T02:15:17;13.93;;;5.22;;
40537;SDS011;27925;41.874;12.526;2024-02-23T02:17:42;10.63;;;4.50;;
40537;SDS011;27925;41.874;12.526;2024-02-23T02:20:11;9.02;;;4.47;;
40537;SDS011;27925;41.874;12.526;2024-02-23T02:22:38;8.80;;;4.40;;
40537;SDS011;27925;41.874;12.526;2024-02-23T02:25:04;10.48;;;5.07;;
40537;SDS011;27925;41.874;12.526;2024-02-23T02:27:31;11.43;;;4.47;;
40537;SDS011;27925;41.874;12.526;2024-02-23T02:29:57;10.95;;;5.00;;
40537;SDS011;27925;41.874;12.526;2024-02-23T02:32:23;10.52;;;4.32;;
40537;SDS011;27925;41.874;12.526;2024-02-23T02:34:49;10.05;;;4.28;;
40537;SDS011;27925;41.874;12.526;2024-02-23T02:37:15;9.57;;;4.57;;
40537;SDS011;27925;41.874;12.526;2024-02-23T02:39:40;8.05;;;4.13;;
40537;SDS011;27925;41.874;12.526;2024-02-23T02:42:06;8.00;;;4.35;;
40537;SDS011;27925;41.874;12.526;2024-02-23T02:44:32;9.52;;;4.65;;
40537;SDS011;27925;41.874;12.526;2024-02-23T02:46:58;8.52;;;3.85;;
40537;SDS011;27925;41.874;12.526;2024-02-23T02:49:23;15.10;;;4.35;;
40537;SDS011;27925;41.874;12.526;2024-02-23T02:51:49;9.50;;;4.00;;
40537;SDS011;27925;41.874;12.526;2024-02-23T02:54:15;10.68;;;4.47;;
40537;SDS011;27925;41.874;12.526;2024-02-23T02:56:42;10.63;;;4.30;;
40537;SDS011;27925;41.874;12.526;2024-02-23T02:59:08;13.95;;;4.35;;
40537;SDS011;27925;41.874;12.526;2024-02-23T03:01:35;10.38;;;5.20;;
40537;SDS011;27925;41.874;12.526;2024-02-23T03:04:01;10.88;;;4.65;;
40537;SDS011;27925;41.874;12.526;2024-02-23T03:06:26;11.00;;;4.47;;
40537;SDS011;27925;41.874;12.526;2024-02-23T03:08:52;9.00;;;4.82;;
40537;SDS011;27925;41.874;12.526;2024-02-23T03:11:18;10.25;;;4.85;;
40537;SDS011;27925;41.874;12.526;2024-02-23T03:13:44;14.40;;;4.70;;
40537;SDS011;27925;41.874;12.526;2024-02-23T03:16:20;10.48;;;4.95;;
40537;SDS011;27925;41.874;12.526;2024-02-23T03:18:48;9.63;;;4.63;;
40537;SDS011;27925;41.874;12.526;2024-02-23T03:21:14;12.32;;;4.75;;
40537;SDS011;27925;41.874;12.526;2024-02-23T03:23:40;9.13;;;4.63;;
40537;SDS011;27925;41.874;12.526;2024-02-23T03:26:06;14.05;;;5.43;;
40537;SDS011;27925;41.874;12.526;2024-02-23T03:28:33;9.68;;;4.78;;
40537;SDS011;27925;41.874;12.526;2024-02-23T03:30:59;11.07;;;5.35;;
40537;SDS011;27925;41.874;12.526;2024-02-23T03:33:25;10.20;;;5.03;;
40537;SDS011;27925;41.874;12.526;2024-02-23T03:35:51;13.27;;;5.05;;
40537;SDS011;27925;41.874;12.526;2024-02-23T03:38:17;12.35;;;5.03;;
40537;SDS011;27925;41.874;12.526;2024-02-23T03:40:43;10.35;;;5.05;;
40537;SDS011;27925;41.874;12.526;2024-02-23T03:43:09;11.55;;;5.22;;
40537;SDS011;27925;41.874;12.526;2024-02-23T03:45:34;15.38;;;5.68;;
40537;SDS011;27925;41.874;12.526;2024-02-23T03:48:00;12.73;;;5.10;;
40537;SDS011;27925;41.874;12.526;2024-02-23T03:50:28;12.05;;;5.30;;
40537;SDS011;27925;41.874;12.526;2024-02-23T03:52:54;11.32;;;5.10;;
40537;SDS011;27925;41.874;12.526;2024-02-23T03:55:20;10.32;;;5.57;;
40537;SDS011;27925;41.874;12.526;2024-02-23T03:57:47;11.20;;;5.38;;
40537;SDS011;27925;41.874;12.526;2024-02-23T04:00:13;13.60;;;5.20;;
40537;SDS011;27925;41.874;12.526;2024-02-23T04:02:39;14.00;;;5.93;;
40537;SDS011;27925;41.874;12.526;2024-02-23T04:05:05;12.93;;;5.35;;
40537;SDS011;27925;41.874;12.526;2024-02-23T04:07:31;13.73;;;6.03;;
40537;SDS011;27925;41.874;12.526;2024-02-23T04:09:57;15.43;;;5.28;;
40537;SDS011;27925;41.874;12.526;2024-02-23T04:12:23;19.27;;;6.55;;
40537;SDS011;27925;41.874;12.526;2024-02-23T04:14:49;12.63;;;6.32;;
40537;SDS011;27925;41.874;12.526;2024-02-23T04:17:15;12.60;;;6.10;;
40537;SDS011;27925;41.874;12.526;2024-02-23T04:19:42;14.85;;;6.13;;
40537;SDS011;27925;41.874;12.526;2024-02-23T04:22:08;14.30;;;6.32;;
40537;SDS011;27925;41.874;12.526;2024-02-23T04:24:38;14.27;;;6.18;;
40537;SDS011;27925;41.874;12.526;2024-02-23T04:27:05;15.93;;;6.68;;
40537;SDS011;27925;41.874;12.526;2024-02-23T04:29:31;12.40;;;6.53;;
40537;SDS011;27925;41.874;12.526;2024-02-23T04:32:00;18.10;;;6.50;;
40537;SDS011;27925;41.874;12.526;2024-02-23T04:34:26;16.55;;;7.00;;
40537;SDS011;27925;41.874;12.526;2024-02-23T04:36:53;14.77;;;6.22;;
40537;SDS011;27925;41.874;12.526;2024-02-23T04:39:19;13.82;;;6.30;;
40537;SDS011;27925;41.874;12.526;2024-02-23T04:41:45;15.30;;;6.95;;
40537;SDS011;27925;41.874;12.526;2024-02-23T04:44:10;15.05;;;6.80;;
40537;SDS011;27925;41.874;12.526;2024-02-23T04:46:36;13.07;;;6.63;;
40537;SDS011;27925;41.874;12.526;2024-02-23T04:49:02;19.13;;;7.13;;
40537;SDS011;27925;41.874;12.526;2024-02-23T04:51:27;27.38;;;8.70;;
40537;SDS011;27925;41.874;12.526;2024-02-23T04:53:53;16.48;;;7.32;;
40537;SDS011;27925;41.874;12.526;2024-02-23T04:56:19;14.45;;;7.13;;
40537;SDS011;27925;41.874;12.526;2024-02-23T04:58:45;14.02;;;7.32;;
40537;SDS011;27925;41.874;12.526;2024-02-23T05:01:12;12.32;;;7.47;;
40537;SDS011;27925;41.874;12.526;2024-02-23T05:03:38;14.85;;;7.25;;
40537;SDS011;27925;41.874;12.526;2024-02-23T05:06:03;13.70;;;7.10;;
40537;SDS011;27925;41.874;12.526;2024-02-23T05:08:29;15.23;;;7.30;;
40537;SDS011;27925;41.874;12.526;2024-02-23T05:10:56;16.58;;;8.27;;
40537;SDS011;27925;41.874;12.526;2024-02-23T05:13:22;15.52;;;7.57;;
40537;SDS011;27925;41.874;12.526;2024-02-23T05:15:48;16.15;;;7.63;;
40537;SDS011;27925;41.874;12.526;2024-02-23T05:18:14;16.95;;;7.80;;
40537;SDS011;27925;41.874;12.526;2024-02-23T05:20:39;18.40;;;8.50;;
40537;SDS011;27925;41.874;12.526;2024-02-23T05:23:05;21.58;;;8.82;;
40537;SDS011;27925;41.874;12.526;2024-02-23T05:25:31;20.23;;;8.75;;
40537;SDS011;27925;41.874;12.526;2024-02-23T05:27:56;18.88;;;8.05;;
40537;SDS011;27925;41.874;12.526;2024-02-23T05:30:22;19.45;;;8.40;;
40537;SDS011;27925;41.874;12.526;2024-02-23T05:32:48;14.98;;;7.45;;
40537;SDS011;27925;41.874;12.526;2024-02-23T05:35:14;18.50;;;7.95;;
40537;SDS011;27925;41.874;12.526;2024-02-23T05:37:40;15.55;;;7.93;;
40537;SDS011;27925;41.874;12.526;2024-02-23T05:40:06;17.35;;;8.45;;
40537;SDS011;27925;41.874;12.526;2024-02-23T05:42:38;20.70;;;8.15;;
40537;SDS011;27925;41.874;12.526;2024-02-23T05:45:04;22.83;;;8.02;;
40537;SDS011;27925;41.874;12.526;2024-02-23T05:47:33;20.77;;;8.18;;
40537;SDS011;27925;41.874;12.526;2024-02-23T05:50:07;20.77;;;8.43;;
40537;SDS011;27925;41.874;12.526;2024-02-23T05:52:34;21.85;;;7.70;;
40537;SDS011;27925;41.874;12.526;2024-02-23T05:55:01;18.95;;;8.20;;
40537;SDS011;27925;41.874;12.526;2024-02-23T05:57:28;18.60;;;7.65;;
40537;SDS011;27925;41.874;12.526;2024-02-23T05:59:54;21.40;;;7.45;;
40537;SDS011;27925;41.874;12.526;2024-02-23T06:02:21;17.23;;;7.65;;
40537;SDS011;27925;41.874;12.526;2024-02-23T06:04:47;18.48;;;7.50;;
40537;SDS011;27925;41.874;12.526;2024-02-23T06:07:13;14.98;;;7.30;;
40537;SDS011;27925;41.874;12.526;2024-02-23T06:09:42;25.23;;;8.55;;
40537;SDS011;27925;41.874;12.526;2024-02-23T06:12:08;17.83;;;7.75;;
40537;SDS011;27925;41.874;12.526;2024-02-23T06:14:35;18.63;;;8.57;;
40537;SDS011;27925;41.874;12.526;2024-02-23T06:17:01;20.80;;;8.25;;
40537;SDS011;27925;41.874;12.526;2024-02-23T06:19:27;21.33;;;8.60;;
40537;SDS011;27925;41.874;12.526;2024-02-23T06:21:53;19.25;;;8.35;;
40537;SDS011;27925;41.874;12.526;2024-02-23T06:24:19;19.70;;;7.60;;
40537;SDS011;27925;41.874;12.526;2024-02-23T06:26:45;23.23;;;8.38;;
40537;SDS011;27925;41.874;12.526;2024-02-23T06:29:11;19.67;;;8.38;;
40537;SDS011;27925;41.874;12.526;2024-02-23T06:31:38;15.63;;;8.07;;
40537;SDS011;27925;41.874;12.526;2024-02-23T06:34:05;19.30;;;7.97;;
40537;SDS011;27925;41.874;12.526;2024-02-23T06:36:31;17.13;;;8.32;;
40537;SDS011;27925;41.874;12.526;2024-02-23T06:38:56;23.70;;;8.23;;
40537;SDS011;27925;41.874;12.526;2024-02-23T06:41:22;22.83;;;7.97;;
40537;SDS011;27925;41.874;12.526;2024-02-23T06:43:48;20.70;;;7.85;;
40537;SDS011;27925;41.874;12.526;2024-02-23T06:46:13;19.85;;;8.18;;
40537;SDS011;27925;41.874;12.526;2024-02-23T06:48:39;26.73;;;8.30;;
40537;SDS011;27925;41.874;12.526;2024-02-23T06:51:05;19.60;;;8.90;;
40537;SDS011;27925;41.874;12.526;2024-02-23T06:53:34;20.10;;;8.52;;
40537;SDS011;27925;41.874;12.526;2024-02-23T06:56:00;27.27;;;9.35;;
40537;SDS011;27925;41.874;12.526;2024-02-23T06:58:27;25.50;;;8.13;;
40537;SDS011;27925;41.874;12.526;2024-02-23T07:00:52;23.27;;;8.48;;
40537;SDS011;27925;41.874;12.526;2024-02-23T07:03:18;25.52;;;8.88;;
40537;SDS011;27925;41.874;12.526;2024-02-23T07:05:44;22.00;;;8.85;;
40537;SDS011;27925;41.874;12.526;2024-02-23T07:08:11;24.00;;;9.27;;
40537;SDS011;27925;41.874;12.526;2024-02-23T07:10:37;28.48;;;9.38;;
40537;SDS011;27925;41.874;12.526;2024-02-23T07:13:03;26.92;;;9.48;;
40537;SDS011;27925;41.874;12.526;2024-02-23T07:15:28;26.23;;;9.75;;
40537;SDS011;27925;41.874;12.526;2024-02-23T07:17:55;25.20;;;8.93;;
40537;SDS011;27925;41.874;12.526;2024-02-23T07:20:21;27.90;;;9.48;;
40537;SDS011;27925;41.874;12.526;2024-02-23T07:22:47;31.48;;;10.25;;
40537;SDS011;27925;41.874;12.526;2024-02-23T07:25:16;28.05;;;9.40;;
40537;SDS011;27925;41.874;12.526;2024-02-23T07:27:45;26.02;;;10.25;;
40537;SDS011;27925;41.874;12.526;2024-02-23T07:30:12;43.42;;;10.57;;
40537;SDS011;27925;41.874;12.526;2024-02-23T07:32:38;30.95;;;10.82;;
40537;SDS011;27925;41.874;12.526;2024-02-23T07:35:03;26.88;;;9.65;;
40537;SDS011;27925;41.874;12.526;2024-02-23T07:37:29;26.80;;;10.65;;
40537;SDS011;27925;41.874;12.526;2024-02-23T07:39:55;28.77;;;10.25;;
40537;SDS011;27925;41.874;12.526;2024-02-23T07:42:21;32.55;;;10.35;;
40537;SDS011;27925;41.874;12.526;2024-02-23T07:44:47;37.88;;;11.18;;
40537;SDS011;27925;41.874;12.526;2024-02-23T07:47:12;25.85;;;9.48;;
40537;SDS011;27925;41.874;12.526;2024-02-23T07:49:38;33.83;;;11.00;;
40537;SDS011;27925;41.874;12.526;2024-02-23T07:52:06;24.10;;;10.20;;
40537;SDS011;27925;41.874;12.526;2024-02-23T07:54:32;33.05;;;11.27;;
40537;SDS011;27925;41.874;12.526;2024-02-23T07:56:58;23.13;;;9.38;;
40537;SDS011;27925;41.874;12.526;2024-02-23T07:59:24;28.67;;;10.55;;
40537;SDS011;27925;41.874;12.526;2024-02-23T08:01:50;32.10;;;10.10;;
40537;SDS011;27925;41.874;12.526;2024-02-23T08:04:15;26.58;;;10.55;;
40537;SDS011;27925;41.874;12.526;2024-02-23T08:06:41;28.95;;;9.93;;
40537;SDS011;27925;41.874;12.526;2024-02-23T08:09:08;36.25;;;11.25;;
40537;SDS011;27925;41.874;12.526;2024-02-23T08:11:34;31.35;;;10.57;;
40537;SDS011;27925;41.874;12.526;2024-02-23T08:14:00;25.05;;;10.30;;
40537;SDS011;27925;41.874;12.526;2024-02-23T08:16:28;27.35;;;10.18;;
40537;SDS011;27925;41.874;12.526;2024-02-23T08:18:53;28.67;;;10.40;;
40537;SDS011;27925;41.874;12.526;2024-02-23T08:21:19;32.42;;;10.57;;
40537;SDS011;27925;41.874;12.526;2024-02-23T08:23:45;34.83;;;10.05;;
40537;SDS011;27925;41.874;12.526;2024-02-23T08:26:11;30.58;;;9.93;;
40537;SDS011;27925;41.874;12.526;2024-02-23T08:28:36;35.15;;;10.85;;
40537;SDS011;27925;41.874;12.526;2024-02-23T08:31:02;27.42;;;10.10;;
40537;SDS011;27925;41.874;12.526;2024-02-23T08:33:28;34.55;;;9.82;;
40537;SDS011;27925;41.874;12.526;2024-02-23T08:35:54;28.38;;;10.32;;
40537;SDS011;27925;41.874;12.526;2024-02-23T08:38:20;30.35;;;10.80;;
40537;SDS011;27925;41.874;12.526;2024-02-23T08:40:45;35.40;;;10.82;;
40537;SDS011;27925;41.874;12.526;2024-02-23T08:43:11;30.20;;;9.70;;
40537;SDS011;27925;41.874;12.526;2024-02-23T08:45:38;20.92;;;9.57;;
40537;SDS011;27925;41.874;12.526;2024-02-23T08:48:04;27.58;;;10.32;;
40537;SDS011;27925;41.874;12.526;2024-02-23T08:50:30;28.42;;;9.10;;
40537;SDS011;27925;41.874;12.526;2024-02-23T08:52:56;27.35;;;9.55;;
40537;SDS011;27925;41.874;12.526;2024-02-23T08:55:22;31.58;;;9.85;;
40537;SDS011;27925;41.874;12.526;2024-02-23T08:57:47;25.67;;;9.40;;
40537;SDS011;27925;41.874;12.526;2024-02-23T09:00:13;24.67;;;9.68;;
40537;SDS011;27925;41.874;12.526;2024-02-23T09:02:39;25.25;;;10.13;;
40537;SDS011;27925;41.874;12.526;2024-02-23T09:05:07;26.45;;;9.82;;
40537;SDS011;27925;41.874;12.526;2024-02-23T09:07:33;26.95;;;9.70;;
40537;SDS011;27925;41.874;12.526;2024-02-23T09:09:59;38.45;;;10.38;;
40537;SDS011;27925;41.874;12.526;2024-02-23T09:12:25;27.88;;;9.23;;
40537;SDS011;27925;41.874;12.526;2024-02-23T09:14:51;31.90;;;9.95;;
40537;SDS011;27925;41.874;12.526;2024-02-23T09:17:17;34.65;;;10.93;;
40537;SDS011;27925;41.874;12.526;2024-02-23T09:19:45;31.70;;;9.10;;
40537;SDS011;27925;41.874;12.526;2024-02-23T09:22:11;26.30;;;9.38;;
40537;SDS011;27925;41.874;12.526;2024-02-23T09:24:40;31.30;;;9.85;;
40537;SDS011;27925;41.874;12.526;2024-02-23T09:27:06;34.55;;;10.63;;
40537;SDS011;27925;41.874;12.526;2024-02-23T09:29:34;35.17;;;9.63;;
40537;SDS011;27925;41.874;12.526;2024-02-23T09:32:00;33.97;;;9.73;;
40537;SDS011;27925;41.874;12.526;2024-02-23T09:34:26;31.98;;;9.57;;
40537;SDS011;27925;41.874;12.526;2024-02-23T09:36:52;30.40;;;10.43;;
40537;SDS011;27925;41.874;12.526;2024-02-23T09:39:18;25.67;;;9.40;;
40537;SDS011;27925;41.874;12.526;2024-02-23T09:41:45;27.75;;;9.70;;
40537;SDS011;27925;41.874;12.526;2024-02-23T09:44:14;31.55;;;9.70;;
40537;SDS011;27925;41.874;12.526;2024-02-23T09:46:41;27.58;;;9.63;;
40537;SDS011;27925;41.874;12.526;2024-02-23T09:49:09;32.22;;;9.32;;
40537;SDS011;27925;41.874;12.526;2024-02-23T09:51:36;35.75;;;9.10;;
40537;SDS011;27925;41.874;12.526;2024-02-23T09:54:04;29.15;;;9.10;;
40537;SDS011;27925;41.874;12.526;2024-02-23T09:56:30;39.72;;;10.60;;
40537;SDS011;27925;41.874;12.526;2024-02-23T09:58:58;36.33;;;10.27;;
40537;SDS011;27925;41.874;12.526;2024-02-23T10:01:30;35.03;;;9.18;;
40537;SDS011;27925;41.874;12.526;2024-02-23T10:03:57;31.35;;;10.43;;
40537;SDS011;27925;41.874;12.526;2024-02-23T10:06:25;32.47;;;10.10;;
40537;SDS011;27925;41.874;12.526;2024-02-23T10:08:52;34.75;;;9.57;;
40537;SDS011;27925;41.874;12.526;2024-02-23T10:11:21;40.75;;;12.00;;
40537;SDS011;27925;41.874;12.526;2024-02-23T10:13:48;84.65;;;14.50;;
40537;SDS011;27925;41.874;12.526;2024-02-23T10:16:15;44.83;;;10.82;;
40537;SDS011;27925;41.874;12.526;2024-02-23T10:18:45;42.55;;;10.15;;
40537;SDS011;27925;41.874;12.526;2024-02-23T10:21:13;37.88;;;11.68;;
40537;SDS011;27925;41.874;12.526;2024-02-23T10:23:40;46.72;;;10.90;;
40537;SDS011;27925;41.874;12.526;2024-02-23T10:26:06;42.85;;;9.90;;
40537;SDS011;27925;41.874;12.526;2024-02-23T10:28:34;34.97;;;9.25;;
40537;SDS011;27925;41.874;12.526;2024-02-23T10:31:06;30.95;;;8.15;;
40537;SDS011;27925;41.874;12.526;2024-02-23T10:33:32;27.27;;;8.98;;
40537;SDS011;27925;41.874;12.526;2024-02-23T10:35:57;31.65;;;9.18;;
40537;SDS011;27925;41.874;12.526;2024-02-23T10:38:28;36.45;;;10.20;;
40537;SDS011;27925;41.874;12.526;2024-02-23T10:40:57;37.92;;;10.48;;
40537;SDS011;27925;41.874;12.526;2024-02-23T10:43:35;33.47;;;9.30;;
40537;SDS011;27925;41.874;12.526;2024-02-23T10:46:06;40.58;;;9.63;;
40537;SDS011;27925;41.874;12.526;2024-02-23T10:48:38;31.73;;;8.98;;
40537;SDS011;27925;41.874;12.526;2024-02-23T10:51:08;35.78;;;9.85;;
40537;SDS011;27925;41.874;12.526;2024-02-23T10:53:37;41.03;;;10.23;;
40537;SDS011;27925;41.874;12.526;2024-02-23T10:56:04;54.40;;;11.57;;
40537;SDS011;27925;41.874;12.526;2024-02-23T10:58:31;67.18;;;13.98;;
40537;SDS011;27925;41.874;12.526;2024-02-23T11:01:00;42.47;;;11.50;;
40537;SDS011;27925;41.874;12.526;2024-02-23T11:03:30;48.80;;;11.15;;
40537;SDS011;27925;41.874;12.526;2024-02-23T11:05:58;50.55;;;11.63;;
40537;SDS011;27925;41.874;12.526;2024-02-23T11:08:27;45.58;;;11.27;;
40537;SDS011;27925;41.874;12.526;2024-02-23T11:10:53;34.83;;;10.68;;
40537;SDS011;27925;41.874;12.526;2024-02-23T11:13:34;38.83;;;9.90;;
40537;SDS011;27925;41.874;12.526;2024-02-23T11:16:01;31.80;;;9.70;;
40537;SDS011;27925;41.874;12.526;2024-02-23T11:18:28;34.00;;;10.40;;
40537;SDS011;27925;41.874;12.526;2024-02-23T11:20:55;31.75;;;9.68;;
40537;SDS011;27925;41.874;12.526;2024-02-23T11:23:23;41.80;;;11.30;;
40537;SDS011;27925;41.874;12.526;2024-02-23T11:26:04;36.13;;;10.82;;
40537;SDS011;27925;41.874;12.526;2024-02-23T11:28:41;40.35;;;9.85;;
40537;SDS011;27925;41.874;12.526;2024-02-23T11:31:11;37.70;;;9.98;;
40537;SDS011;27925;41.874;12.526;2024-02-23T11:33:38;36.78;;;11.10;;
40537;SDS011;27925;41.874;12.526;2024-02-23T11:36:07;44.38;;;9.98;;
40537;SDS011;27925;41.874;12.526;2024-02-23T11:38:33;36.40;;;10.18;;
40537;SDS011;27925;41.874;12.526;2024-02-23T11:41:02;51.03;;;11.00;;
40537;SDS011;27925;41.874;12.526;2024-02-23T11:43:28;31.55;;;10.52;;
40537;SDS011;27925;41.874;12.526;2024-02-23T11:45:54;39.80;;;10.23;;
40537;SDS011;27925;41.874;12.526;2024-02-23T11:48:20;29.55;;;10.35;;
40537;SDS011;27925;41.874;12.526;2024-02-23T11:50:48;39.65;;;10.90;;
40537;SDS011;27925;41.874;12.526;2024-02-23T11:53:14;36.60;;;9.35;;
40537;SDS011;27925;41.874;12.526;2024-02-23T11:55:40;36.83;;;10.30;;
40537;SDS011;27925;41.874;12.526;2024-02-23T11:58:06;42.30;;;10.35;;
40537;SDS011;27925;41.874;12.526;2024-02-23T12:00:32;33.13;;;9.77;;
40537;SDS011;27925;41.874;12.526;2024-02-23T12:02:58;40.65;;;11.05;;
40537;SDS011;27925;41.874;12.526;2024-02-23T12:05:24;33.83;;;10.95;;
40537;SDS011;27925;41.874;12.526;2024-02-23T12:07:49;34.72;;;10.40;;
40537;SDS011;27925;41.874;12.526;2024-02-23T12:10:16;35.58;;;10.13;;
40537;SDS011;27925;41.874;12.526;2024-02-23T12:12:42;39.30;;;10.95;;
40537;SDS011;27925;41.874;12.526;2024-02-23T12:15:08;41.60;;;11.30;;
40537;SDS011;27925;41.874;12.526;2024-02-23T12:17:36;36.15;;;11.60;;
40537;SDS011;27925;41.874;12.526;2024-02-23T12:20:02;39.38;;;11.18;;
40537;SDS011;27925;41.874;12.526;2024-02-23T12:22:29;42.17;;;11.55;;
40537;SDS011;27925;41.874;12.526;2024-02-23T12:25:00;37.42;;;10.20;;
40537;SDS011;27925;41.874;12.526;2024-02-23T12:27:27;34.50;;;10.40;;
40537;SDS011;27925;41.874;12.526;2024-02-23T12:29:54;41.25;;;10.77;;
40537;SDS011;27925;41.874;12.526;2024-02-23T12:32:20;37.45;;;10.82;;
40537;SDS011;27925;41.874;12.526;2024-02-23T12:34:47;36.35;;;10.40;;
40537;SDS011;27925;41.874;12.526;2024-02-23T12:37:16;38.30;;;11.18;;
40537;SDS011;27925;41.874;12.526;2024-02-23T12:39:43;47.40;;;11.48;;
40537;SDS011;27925;41.874;12.526;2024-02-23T12:42:12;38.25;;;10.52;;
40537;SDS011;27925;41.874;12.526;2024-02-23T12:44:38;43.70;;;10.20;;
40537;SDS011;27925;41.874;12.526;2024-02-23T12:47:04;36.42;;;9.75;;
40537;SDS011;27925;41.874;12.526;2024-02-23T12:49:30;42.42;;;10.95;;
40537;SDS011;27925;41.874;12.526;2024-02-23T12:51:56;36.50;;;11.30;;
40537;SDS011;27925;41.874;12.526;2024-02-23T12:54:22;38.58;;;10.52;;
40537;SDS011;27925;41.874;12.526;2024-02-23T12:56:48;41.85;;;10.45;;
40537;SDS011;27925;41.874;12.526;2024-02-23T12:59:14;39.28;;;10.60;;
40537;SDS011;27925;41.874;12.526;2024-02-23T13:01:40;42.58;;;10.65;;
40537;SDS011;27925;41.874;12.526;2024-02-23T13:04:06;34.17;;;9.52;;
40537;SDS011;27925;41.874;12.526;2024-02-23T13:06:37;40.15;;;10.23;;
40537;SDS011;27925;41.874;12.526;2024-02-23T13:09:04;39.63;;;11.50;;
40537;SDS011;27925;41.874;12.526;2024-02-23T13:11:33;34.28;;;9.38;;
40537;SDS011;27925;41.874;12.526;2024-02-23T13:14:00;37.70;;;10.43;;
40537;SDS011;27925;41.874;12.526;2024-02-23T13:16:26;42.15;;;10.00;;
40537;SDS011;27925;41.874;12.526;2024-02-23T13:18:52;36.72;;;10.57;;
40537;SDS011;27925;41.874;12.526;2024-02-23T13:21:18;30.88;;;9.13;;
40537;SDS011;27925;41.874;12.526;2024-02-23T13:23:44;41.28;;;10.63;;
40537;SDS011;27925;41.874;12.526;2024-02-23T13:26:09;38.63;;;10.57;;
40537;SDS011;27925;41.874;12.526;2024-02-23T13:28:36;39.65;;;11.15;;
40537;SDS011;27925;41.874;12.526;2024-02-23T13:31:02;37.08;;;10.02;;
40537;SDS011;27925;41.874;12.526;2024-02-23T13:33:28;34.47;;;9.70;;
40537;SDS011;27925;41.874;12.526;2024-02-23T13:35:54;30.10;;;9.18;;
40537;SDS011;27925;41.874;12.526;2024-02-23T13:38:20;34.67;;;9.82;;
40537;SDS011;27925;41.874;12.526;2024-02-23T13:40:46;32.85;;;10.23;;
40537;SDS011;27925;41.874;12.526;2024-02-23T13:43:12;38.05;;;11.25;;
40537;SDS011;27925;41.874;12.526;2024-02-23T13:45:48;39.15;;;10.27;;
40537;SDS011;27925;41.874;12.526;2024-02-23T13:48:16;34.15;;;9.40;;
40537;SDS011;27925;41.874;12.526;2024-02-23T13:50:41;39.83;;;9.93;;
40537;SDS011;27925;41.874;12.526;2024-02-23T13:53:07;40.83;;;10.70;;
40537;SDS011;27925;41.874;12.526;2024-02-23T13:55:33;37.53;;;9.73;;
40537;SDS011;27925;41.874;12.526;2024-02-23T13:57:59;39.67;;;10.05;;
40537;SDS011;27925;41.874;12.526;2024-02-23T14:00:24;31.75;;;9.68;;
40537;SDS011;27925;41.874;12.526;2024-02-23T14:02:50;35.10;;;9.55;;
40537;SDS011;27925;41.874;12.526;2024-02-23T14:05:16;38.60;;;10.30;;
40537;SDS011;27925;41.874;12.526;2024-02-23T14:07:43;34.78;;;10.23;;
40537;SDS011;27925;41.874;12.526;2024-02-23T14:10:09;31.52;;;9.70;;
40537;SDS011;27925;41.874;12.526;2024-02-23T14:12:35;36.53;;;9.43;;
40537;SDS011;27925;41.874;12.526;2024-02-23T14:15:01;38.70;;;10.43;;